North Menomonie, Wisconsin
Current Conditions -  °F | °C
As of 3:55 PM on Monday 20 Oct 2014 (Local Time) from KLUM Reporting Station
Scattered Clouds Scattered Clouds  
Wind Chill: 58°   Ceiling: Unl
Heat Index: 58°   Visibility: 10mi
Dew Point: 40°   Wind: 12mph
Humidity: 51%   Direction: 340°NNW
Pressure: 29.97"   Gusts: NA
Location:  44.857°N, 92.0071°W
Report Text: KLUM 202055Z AUTO 34010KT 10SM SCT041 15/05 A2997 RMK AO2 T01450045
Loading
Personal Weather Stations






























Interactive Weather Map
Tropical Storm Tracking
New forecast layout! Learn more

10-Day Weather Forecast

Advertisements
Track Severe Weather on mobile